Startpagina
METAR-TAF:

METAR-TAF

Vliegvelden :

Productieplatform

Goeree Le, Nederland

breedte: 51-55-33N, lengte: 3-40-12E, hoogte: 19 m

Actueel weer

Dit bericht is 41 minuten geleden gemaakt, om 19:25 UTC
Wind 28 kt uit het noordwesten
Temperatuur 9°C
Vochtigheid 57%
Druk 1020 hPa
Zicht 10 km of meer

METAR: EHSC 231925Z AUTO 32028KT 9999 ///////// 09/01 Q1020 W08/H25

Tijdstip: 21:06 (20:06 UTC)


TAF: ontbreekt

Waarnemingen en weersverwachtingen van meer dan 4000 vliegvelden (METAR en TAF).

De beschikbare stations zijn de gele en rode punten op de kaart.

Ga met uw muis naar het station om de naam te zien.

Klik dan om waarnemingen en weersverwachtingen te zien.

kaart wijzigen: klik op de groene knoppen met een zwart kruis om in te zoomen, op de groene knop met een streepje om uit te zoomen of op de groene pijlen voor aangrenzende kaarten.


METAR-TAF: